Terminal Aerodrome Forecast
Issued by NWS

Home | Current Version | Previous Version | Text Only | Print | Product List | Glossary On
Versions: 1 2 3 4 5 6 7 8 9 10 11 12 13 14 15 16 17 18 19 20 21
000
FTUS43 KLSX 052300
TAFUIN
TAF
KUIN 052340Z 0600/0624 17008KT P6SM VCSH BKN080
     FM060200 16007KT P6SM SCT120
     FM061500 17013G22KT P6SM SCT050 BKN120=

USA.gov is the U.S. government's official web portal to all federal, state and local government web resources and services.